Terminal Aerodrome Forecast
Issued by NWS

Current Version | Previous Version | Text Only | Print | Product List | Glossary On
Versions: 1 2 3 4 5 6 7 8 9 10 11 12 13 14 15 16
000
FTUS42 TJSJ 192300 RRA
TAFKPK
TAF
TKPK 192341Z 2000/2024 07012KT P6SM SCT020
     FM201300 07015KT P6SM FEW022
      AMD NOT SKED 2002/2012=

USA.gov is the U.S. government's official web portal to all federal, state and local government web resources and services.